CDT,Max TemperatureF,Mean TemperatureF,Min TemperatureF,Max Dew PointF,MeanDew PointF,Min DewpointF,Max Humidity, Mean Humidity, Min Humidity, Max Sea Level PressureIn, Mean Sea Level PressureIn, Min Sea Level PressureIn, Max VisibilityMiles, Mean VisibilityMiles, Min VisibilityMiles, Max Wind SpeedMPH, Mean Wind SpeedMPH, Max Gust SpeedMPH,PrecipitationIn, CloudCover, Events, WindDirDegrees
2011-10-1,82,66,50,36,32,29,52,33,17,30.28,30.19,30.13,10,10,10,10,6,17,0.00,0,,120
2011-10-2,88,68,50,35,32,28,48,28,15,30.25,30.15,30.06,10,10,10,20,9,28,0.00,0,,153
2011-10-3,90,74,57,46,39,35,42,30,19,30.18,30.11,30.07,10,10,10,17,14,21,0.00,0,,178
2011-10-4,88,72,57,43,40,36,53,33,18,30.19,30.11,30.04,10,10,10,16,12,23,0.00,0,,178
2011-10-5,81,70,59,54,44,36,78,41,25,30.07,30.01,29.93,10,10,2,23,14,26,0.17,2,Rain,171
2011-10-6,82,70,59,63,58,50,82,61,47,30.01,29.87,29.79,10,10,4,30,20,37,0.11,4,Rain,165
2011-10-7,88,80,71,66,64,60,81,64,42,30.00,29.88,29.82,10,10,10,33,25,41,0.00,3,,166
2011-10-8,75,68,60,65,62,57,100,89,65,30.05,29.97,29.84,10,7,0,32,21,46,1.10,7,Fog-Rain-Thunderstorm,159
2011-10-9,68,60,53,61,58,53,100,90,73,30.10,30.05,29.96,10,10,6,21,9,88,0.33,6,Rain,42
2011-10-10,64,56,48,58,52,48,100,95,77,30.14,30.07,30.00,10,5,0,7,4,,0.01,3,Fog,33
2011-10-11,73,68,64,63,61,59,87,77,68,29.98,29.88,29.76,10,10,9,18,15,,0.02,3,Rain-Thunderstorm,187
2011-10-12,78,68,60,61,59,57,93,81,54,29.99,29.83,29.73,10,10,10,18,12,23,0.04,4,Rain-Thunderstorm,218
2011-10-13,77,68,57,48,41,34,65,40,22,30.09,30.00,29.92,10,10,10,12,7,,0.00,0,,237
2011-10-14,84,68,54,53,48,45,77,54,29,29.97,29.91,29.84,10,10,10,22,12,28,0.00,0,Rain,169
2011-10-15,70,62,54,54,52,49,86,73,55,30.10,30.03,29.99,10,10,10,13,10,,0.00,0,,128
2011-10-16,89,74,60,55,52,48,72,52,24,30.01,29.94,29.85,10,10,10,18,14,23,0.00,0,,195
2011-10-17,77,64,53,54,47,31,93,58,35,29.99,29.82,29.68,10,10,10,32,11,41,0.00,0,,18
2011-10-18,66,56,46,41,31,25,83,44,22,30.20,30.13,30.03,10,10,10,28,19,38,0.00,0,,356
2011-10-19,66,52,37,32,29,26,75,47,22,30.19,30.13,30.07,10,10,10,21,11,31,0.00,0,,349
2011-10-20,70,54,39,36,32,30,70,47,25,30.10,30.05,29.97,10,10,10,17,7,25,0.00,0,,161
2011-10-21,77,60,43,44,38,35,76,51,23,30.18,30.10,30.05,10,10,10,9,5,,0.00,0,,74
2011-10-22,81,64,50,59,52,43,89,68,47,30.06,29.98,29.90,10,10,9,16,8,,0.00,1,,109
2011-10-23,82,65,48,56,48,38,100,63,21,30.09,30.03,29.97,10,9,4,14,8,,0.00,0,,343
2011-10-24,84,68,53,53,46,38,89,55,19,30.17,30.08,29.99,10,10,8,23,13,32,0.00,0,,193
2011-10-25,87,74,60,57,54,50,80,56,31,29.98,29.87,29.76,10,10,10,26,19,33,0.00,0,,192
2011-10-26,71,62,50,56,44,36,64,55,43,30.02,29.92,29.75,10,10,10,29,18,40,0.00,1,,32
2011-10-27,48,45,42,43,41,35,93,89,61,30.23,30.14,30.04,10,8,2,30,19,39,0.95,7,Rain-Thunderstorm,15
2011-10-28,59,47,37,39,36,30,96,70,36,30.34,30.29,30.23,10,10,10,10,6,,0.00,0,,313
2011-10-29,61,49,37,43,39,34,93,71,46,30.27,30.15,30.00,10,10,10,23,13,26,0.00,0,,200
2011-10-30,64,53,42,42,39,37,87,61,38,30.21,30.12,29.98,10,10,10,21,12,23,0.00,0,,85
2011-10-31,69,54,39,49,42,37,93,75,44,30.22,30.14,29.99,10,6,2,16,5,,0.00,0,,229